createdAt,value
2018-04-01T00:00:21.726Z,55.70
2018-04-01T00:05:22.943Z,56.30
2018-04-01T00:10:24.151Z,56.40
2018-04-01T00:15:25.426Z,56.60
2018-04-01T00:20:26.485Z,57.20
2018-04-01T00:25:27.612Z,57.20
2018-04-01T00:30:28.760Z,57.50
2018-04-01T00:35:29.927Z,57.70
2018-04-01T00:40:31.041Z,58.00
2018-04-01T00:45:32.191Z,58.10
2018-04-01T00:50:34.160Z,58.50
2018-04-01T00:55:35.302Z,58.50
2018-04-01T01:00:36.493Z,59.00
2018-04-01T01:05:38.471Z,60.80
2018-04-01T01:10:40.350Z,61.20
2018-04-01T01:15:42.225Z,62.50
2018-04-01T01:20:44.084Z,62.70
2018-04-01T01:25:45.246Z,62.70
2018-04-01T01:30:46.408Z,63.00
2018-04-01T01:35:47.588Z,63.90
2018-04-01T01:40:48.727Z,64.40
2018-04-01T01:45:49.848Z,65.10
2018-04-01T01:50:51.008Z,66.10
2018-04-01T01:55:52.130Z,65.00
2018-04-01T02:00:53.280Z,65.00
2018-04-01T02:05:54.503Z,64.60
2018-04-01T02:10:55.647Z,65.10
2018-04-01T02:15:57.806Z,65.70
2018-04-01T02:20:59.774Z,66.20
2018-04-01T02:26:00.918Z,67.00
2018-04-01T02:31:02.061Z,68.10
2018-04-01T02:36:03.909Z,68.40
2018-04-01T02:41:05.049Z,68.30
2018-04-01T02:46:06.196Z,68.80
2018-04-01T02:51:07.484Z,68.80
2018-04-01T02:56:08.690Z,69.40
2018-04-01T03:01:09.827Z,69.70
2018-04-01T03:06:11.691Z,70.00
2018-04-01T03:11:12.836Z,69.70
2018-04-01T03:16:14.013Z,70.00
2018-04-01T03:21:15.149Z,70.70
2018-04-01T03:26:16.306Z,71.20
2018-04-01T03:31:17.452Z,71.70
2018-04-01T03:36:18.690Z,72.20
2018-04-01T03:41:19.923Z,72.50
2018-04-01T03:46:21.805Z,72.40
2018-04-01T03:51:22.948Z,72.40
2018-04-01T03:56:24.206Z,72.50
2018-04-01T04:01:26.104Z,73.30
2018-04-01T04:06:28.056Z,73.80
2018-04-01T04:11:29.260Z,73.70
2018-04-01T04:16:30.407Z,74.30
2018-04-01T04:21:31.533Z,73.50
2018-04-01T04:26:32.649Z,73.10
2018-04-01T04:31:33.791Z,72.70
2018-04-01T04:36:34.913Z,73.20
2018-04-01T04:41:36.052Z,74.00
2018-04-01T04:46:37.169Z,74.50
2018-04-01T04:51:38.308Z,74.50
2018-04-01T04:56:40.179Z,75.30
2018-04-01T05:01:42.037Z,76.00
2018-04-01T05:06:43.190Z,76.00
2018-04-01T05:11:44.313Z,76.90
2018-04-01T05:16:45.444Z,77.60
2018-04-01T05:21:46.561Z,77.60
2018-04-01T05:26:47.869Z,77.70
2018-04-01T05:31:49.019Z,77.90
2018-04-01T05:36:50.885Z,72.10
2018-04-01T05:41:52.817Z,68.70
2018-04-01T05:46:53.943Z,68.60
2018-04-01T05:51:55.053Z,66.60
2018-04-01T05:56:56.229Z,65.20
2018-04-01T06:01:58.107Z,59.80
2018-04-01T06:06:59.998Z,62.80
2018-04-01T06:12:01.133Z,62.00
2018-04-01T06:17:02.301Z,66.20
2018-04-01T06:22:03.415Z,68.30
2018-04-01T06:27:04.549Z,70.50
2018-04-01T06:32:05.685Z,71.10
2018-04-01T06:37:07.581Z,72.20
2018-04-01T06:42:08.729Z,72.10
2018-04-01T06:47:09.885Z,71.10
2018-04-01T06:52:11.791Z,71.70
2018-04-01T06:57:12.980Z,71.60
2018-04-01T07:02:14.300Z,71.30
2018-04-01T07:07:15.453Z,71.70
2018-04-01T07:12:16.564Z,71.40
2018-04-01T07:17:17.708Z,71.20
2018-04-01T07:22:18.880Z,71.30
2018-04-01T07:27:20.044Z,70.70
2018-04-01T07:32:21.173Z,71.10
2018-04-01T07:37:22.314Z,70.30
2018-04-01T07:42:23.466Z,70.20
2018-04-01T07:47:24.576Z,71.00
2018-04-01T07:52:25.754Z,74.30
2018-04-01T07:57:27.651Z,77.30
2018-04-01T08:02:28.867Z,77.20
2018-04-01T08:07:30.014Z,77.00
2018-04-01T08:12:31.326Z,77.80
2018-04-01T08:17:33.260Z,77.80
2018-04-01T08:22:34.404Z,77.80
2018-04-01T08:27:35.530Z,76.90
2018-04-01T08:32:36.655Z,73.70
2018-04-01T08:37:37.809Z,69.40
2018-04-01T08:42:38.982Z,67.50
2018-04-01T08:47:40.886Z,65.10
2018-04-01T08:52:42.789Z,66.30
2018-04-01T08:57:43.986Z,66.30
2018-04-01T09:02:45.161Z,68.10
2018-04-01T09:07:47.081Z,66.10
2018-04-01T09:12:48.262Z,66.10
2018-04-01T09:17:49.429Z,63.30
2018-04-01T09:22:50.611Z,65.20
2018-04-01T09:27:52.483Z,57.40
2018-04-01T09:32:53.638Z,57.30
2018-04-01T09:37:54.825Z,53.10
2018-04-01T09:42:55.949Z,51.90
2018-04-01T09:47:57.073Z,51.90
2018-04-01T09:52:58.368Z,55.00
2018-04-01T09:57:59.504Z,51.90
2018-04-01T10:03:01.098Z,51.80
2018-04-01T10:08:02.714Z,52.50
2018-04-01T10:13:04.306Z,51.40
2018-04-01T10:18:05.891Z,53.20
2018-04-01T10:23:07.432Z,59.20
2018-04-01T10:28:09.017Z,73.70
2018-04-01T10:33:10.742Z,78.30
2018-04-01T10:38:12.306Z,77.70
2018-04-01T10:43:13.927Z,77.60
2018-04-01T10:48:15.509Z,72.20
2018-04-01T10:53:17.105Z,69.70
2018-04-01T10:58:19.018Z,64.30
2018-04-01T11:03:20.231Z,64.30
2018-04-01T11:08:22.177Z,66.60
2018-04-01T11:13:23.354Z,66.50
2018-04-01T11:18:24.575Z,62.70
2018-04-01T11:23:25.751Z,63.40
2018-04-01T11:28:26.972Z,59.60
2018-04-01T11:33:28.153Z,55.40
2018-04-01T11:38:29.295Z,56.10
2018-04-01T11:43:30.441Z,56.90
2018-04-01T11:48:32.334Z,60.00
2018-04-01T11:53:33.516Z,59.90
2018-04-01T11:58:34.746Z,57.10
2018-04-01T12:03:35.881Z,56.20
2018-04-01T12:08:37.053Z,54.20
2018-04-01T12:13:38.238Z,53.30
2018-04-01T12:18:39.388Z,47.20
2018-04-01T12:23:40.530Z,49.60
2018-04-01T12:28:42.424Z,56.20
2018-04-01T12:33:43.573Z,56.30
2018-04-01T12:38:44.842Z,57.60
2018-04-01T12:43:46.201Z,57.00
2018-04-01T12:48:47.363Z,55.70
2018-04-01T12:53:48.501Z,55.10
2018-04-01T12:58:50.445Z,47.60
2018-04-01T13:03:52.369Z,50.40
2018-04-01T13:08:54.246Z,46.30
2018-04-01T13:13:55.379Z,46.30
2018-04-01T13:18:56.529Z,44.10
2018-04-01T13:23:57.650Z,45.10
2018-04-01T13:28:58.742Z,45.80
2018-04-01T13:33:59.858Z,41.50
2018-04-01T13:39:00.962Z,44.40
2018-04-01T13:44:02.052Z,45.80
2018-04-01T13:49:03.158Z,47.40
2018-04-01T13:54:04.281Z,50.00
2018-04-01T13:59:05.458Z,51.20
2018-04-01T14:04:06.559Z,49.60
2018-04-01T14:09:07.683Z,46.40
2018-04-01T14:14:08.828Z,45.30
2018-04-01T14:19:10.004Z,47.10
2018-04-01T14:24:11.235Z,46.00
2018-04-01T14:29:12.404Z,47.70
2018-04-01T14:34:13.564Z,48.90
2018-04-01T14:39:14.752Z,46.30
2018-04-01T14:44:15.918Z,45.60
2018-04-01T14:49:17.080Z,44.70
2018-04-01T14:54:18.312Z,44.40
2018-04-01T14:59:19.467Z,44.10
2018-04-01T15:04:20.630Z,44.60
2018-04-01T15:09:21.770Z,46.30
2018-04-01T15:14:23.810Z,46.50
2018-04-01T15:19:24.877Z,45.00
2018-04-01T15:24:26.775Z,48.90
2018-04-01T15:29:27.919Z,48.80
2018-04-01T15:34:29.821Z,50.50
2018-04-01T15:39:31.006Z,50.50
2018-04-01T15:44:32.250Z,56.80
2018-04-01T15:49:33.457Z,60.10
2018-04-01T15:54:34.608Z,61.30
2018-04-01T15:59:35.741Z,61.30
2018-04-01T16:04:36.878Z,61.00
2018-04-01T16:09:38.036Z,60.80
2018-04-01T16:14:39.225Z,61.60
2018-04-01T16:19:40.391Z,63.30
2018-04-01T16:24:41.573Z,62.00
2018-04-01T16:29:42.775Z,63.30
2018-04-01T16:34:43.892Z,60.90
2018-04-01T16:39:44.988Z,60.80
2018-04-01T16:44:46.115Z,59.50
2018-04-01T16:49:47.935Z,57.10
2018-04-01T16:54:49.038Z,57.10
2018-04-01T16:59:50.097Z,56.00
2018-04-01T17:04:51.261Z,55.50
2018-04-01T17:09:53.131Z,56.50
2018-04-01T17:14:54.283Z,55.80
2018-04-01T17:19:55.430Z,55.60
2018-04-01T17:24:56.553Z,56.10
2018-04-01T17:29:57.660Z,56.80
2018-04-01T17:34:58.750Z,56.80
2018-04-01T17:39:59.878Z,57.40
2018-04-01T17:45:00.995Z,56.70
2018-04-01T17:50:02.164Z,56.80
2018-04-01T17:55:03.323Z,57.70
2018-04-01T18:00:04.484Z,59.30
2018-04-01T18:05:05.641Z,61.50
2018-04-01T18:10:06.781Z,60.60
2018-04-01T18:15:07.965Z,61.30
2018-04-01T18:20:09.126Z,62.00
2018-04-01T18:25:10.259Z,62.60
2018-04-01T18:30:11.389Z,66.00
2018-04-01T18:35:13.301Z,71.40
2018-04-01T18:40:14.534Z,71.20
2018-04-01T18:45:15.629Z,70.10
2018-04-01T18:50:16.964Z,73.90
2018-04-01T18:55:18.132Z,77.40
2018-04-01T19:00:19.392Z,78.10
2018-04-01T19:05:20.609Z,78.60
2018-04-01T19:10:22.022Z,73.40
2018-04-01T19:15:23.144Z,72.90
2018-04-01T19:20:25.856Z,74.30
2018-04-01T19:25:27.416Z,74.30
2018-04-01T19:30:29.900Z,74.50
2018-04-01T19:35:32.526Z,73.50
2018-04-01T19:40:34.330Z,73.40
2018-04-01T19:45:36.294Z,75.40
2018-04-01T19:50:38.162Z,76.00
2018-04-01T19:55:40.031Z,77.20
2018-04-01T20:00:41.722Z,76.00
2018-04-01T20:05:44.487Z,75.10
2018-04-01T20:10:46.411Z,74.10
2018-04-01T20:15:47.998Z,72.60
2018-04-01T20:20:49.605Z,73.30
2018-04-01T20:25:51.169Z,73.60
2018-04-01T20:30:52.741Z,73.90
2018-04-01T20:35:54.523Z,74.10
2018-04-01T20:40:56.121Z,73.00
2018-04-01T20:45:57.691Z,71.90
2018-04-01T20:50:59.425Z,72.00
2018-04-01T20:56:01.080Z,73.40
2018-04-01T21:01:03.482Z,72.60
2018-04-01T21:06:05.093Z,72.60
2018-04-01T21:11:06.873Z,71.30
2018-04-01T21:16:08.497Z,71.70
2018-04-01T21:21:09.999Z,73.10
2018-04-01T21:26:11.628Z,73.40
2018-04-01T21:31:13.241Z,73.70
2018-04-01T21:36:14.794Z,74.50
2018-04-01T21:41:16.382Z,73.80
2018-04-01T21:46:18.166Z,72.70
2018-04-01T21:51:19.713Z,73.50
2018-04-01T21:56:21.252Z,74.10
2018-04-01T22:01:22.960Z,74.20
2018-04-01T22:06:24.540Z,74.30
2018-04-01T22:11:26.087Z,74.20
2018-04-01T22:16:27.644Z,74.90
2018-04-01T22:21:29.425Z,74.00
2018-04-01T22:26:31.007Z,74.20
2018-04-01T22:31:32.572Z,73.30
2018-04-01T22:36:34.241Z,73.60
2018-04-01T22:41:35.792Z,72.90
2018-04-01T22:46:37.349Z,72.40
2018-04-01T22:51:38.915Z,72.80
2018-04-01T22:56:40.612Z,72.50
2018-04-01T23:01:42.181Z,74.00
2018-04-01T23:06:43.766Z,73.00
2018-04-01T23:11:45.308Z,72.10
2018-04-01T23:16:46.856Z,72.80
2018-04-01T23:21:48.486Z,72.20
2018-04-01T23:26:50.069Z,73.10
2018-04-01T23:31:52.375Z,74.90
2018-04-01T23:36:54.071Z,74.80
2018-04-01T23:41:55.634Z,75.60
2018-04-01T23:46:57.184Z,76.70
2018-04-01T23:51:58.820Z,77.30
2018-04-01T23:57:00.384Z,77.90
